Terminal Aerodrome Forecast
Issued by NWS Sioux Falls, SD

Home | Current Version | Previous Version | Text Only | Print | Product List | Glossary On
Versions: 1 2 3 4 5 6 7 8 9 10 11 12 13
433
FTUS43 KFSD 211720
TAFFSD
TAF
KFSD 211720Z 2118/2218 34018G28KT P6SM SKC
     FM212300 32011KT P6SM FEW250
     FM220100 32006KT P6SM FEW250
     FM221500 18008KT P6SM SCT140
     FM221700 18012KT P6SM BKN090=

USA.gov is the U.S. government's official web portal to all federal, state and local government web resources and services.